TimeEDT,TemperatureF,Dew PointF,Humidity,Sea Level PressureIn,VisibilityMPH,Wind Direction,Wind SpeedMPH,Gust SpeedMPH,PrecipitationIn,Events,Conditions,WindDirDegrees,DateUTC
12:54 AM,45.0,35.1,68,29.86,10.0,NW,15.0,23.0,N/A,,Scattered Clouds,320,2013-04-01 04:54:00
1:54 AM,41.0,32.0,70,29.88,10.0,NNW,17.3,-,N/A,,Partly Cloudy,330,2013-04-01 05:54:00
2:54 AM,37.9,28.0,68,29.88,10.0,NW,12.7,-,N/A,,Scattered Clouds,320,2013-04-01 06:54:00
3:54 AM,37.9,27.0,65,29.90,10.0,NW,12.7,20.7,N/A,,Mostly Cloudy,310,2013-04-01 07:54:00
4:54 AM,37.0,27.0,67,29.91,10.0,NW,13.8,18.4,N/A,,Mostly Cloudy,310,2013-04-01 08:54:00
5:54 AM,37.0,27.0,67,29.94,10.0,NW,10.4,-,N/A,,Overcast,310,2013-04-01 09:54:00
6:54 AM,37.0,27.0,67,29.97,10.0,NW,11.5,-,N/A,,Overcast,320,2013-04-01 10:54:00
7:54 AM,35.1,27.0,72,30.01,10.0,NW,10.4,-,N/A,,Mostly Cloudy,320,2013-04-01 11:54:00
8:54 AM,36.0,26.1,67,30.04,10.0,NW,11.5,-,N/A,,Scattered Clouds,320,2013-04-01 12:54:00
9:54 AM,37.9,26.1,62,30.05,10.0,NNW,9.2,-,N/A,,Scattered Clouds,340,2013-04-01 13:54:00
10:54 AM,39.0,23.0,53,30.07,10.0,NNW,11.5,-,N/A,,Scattered Clouds,330,2013-04-01 14:54:00
11:54 AM,42.1,21.9,45,30.09,10.0,WNW,13.8,-,N/A,,Mostly Cloudy,300,2013-04-01 15:54:00
12:54 PM,43.0,19.9,40,30.10,10.0,NW,15.0,19.6,N/A,,Mostly Cloudy,320,2013-04-01 16:54:00
1:54 PM,43.0,19.0,38,30.09,10.0,NW,17.3,-,N/A,,Mostly Cloudy,310,2013-04-01 17:54:00
2:54 PM,43.0,18.0,37,30.09,10.0,WNW,13.8,23.0,N/A,,Mostly Cloudy,290,2013-04-01 18:54:00
3:54 PM,44.6,19.4,37,30.08,10.0,WNW,16.1,32.2,N/A,,Mostly Cloudy,290,2013-04-01 19:54:00
4:54 PM,44.6,17.6,34,30.08,10.0,West,18.4,24.2,N/A,,Scattered Clouds,280,2013-04-01 20:54:00
5:54 PM,43.0,16.0,34,30.10,10.0,WNW,16.1,24.2,N/A,,Scattered Clouds,300,2013-04-01 21:54:00
6:54 PM,44.1,17.1,34,30.10,10.0,WNW,18.4,23.0,N/A,,Scattered Clouds,290,2013-04-01 22:54:00
7:54 PM,39.9,15.1,36,30.12,10.0,WNW,12.7,-,N/A,,Partly Cloudy,290,2013-04-01 23:54:00
8:54 PM,37.0,17.1,44,30.12,10.0,WNW,10.4,-,N/A,,Partly Cloudy,300,2013-04-02 00:54:00
9:54 PM,35.1,18.0,50,30.14,10.0,NW,10.4,-,N/A,,Clear,310,2013-04-02 01:54:00
10:54 PM,34.0,17.1,50,30.16,10.0,NW,9.2,-,N/A,,Clear,320,2013-04-02 02:54:00
11:54 PM,30.9,18.0,59,30.16,10.0,NW,8.1,-,N/A,,Clear,320,2013-04-02 03:54:00